Time;durP1;ratioP1;P1;durP2;ratioP2;P2;SDS_P1;SDS_P2;PMS_P1;PMS_P2;Temp;Humidity;BMP_temperature;BMP_pressure;BME280_temperature;BME280_humidity;BME280_pressure;Samples;Min_cycle;Max_cycle;Signal;HPM_P1;HPM_P2
2021/07/22 00:00:41;;;;;;;24.83;12.38;;;26.20;84.60;;;;;;4879645;29;20512;-66
2021/07/22 00:03:45;;;;;;;24.73;11.73;;;26.20;85.30;;;;;;4879559;29;20068;-66
2021/07/22 00:06:48;;;;;;;26.65;12.13;;;26.10;84.40;;;;;;4879318;29;20060;-66
2021/07/22 00:09:52;;;;;;;27.90;11.93;;;26.00;84.00;;;;;;4879217;29;20052;-66
2021/07/22 00:12:56;;;;;;;25.40;11.68;;;25.90;84.30;;;;;;4879310;29;20048;-66
2021/07/22 00:16:01;;;;;;;25.13;11.32;;;25.80;84.70;;;;;;4879323;29;20063;-66
2021/07/22 00:19:05;;;;;;;23.95;11.23;;;25.70;85.00;;;;;;4879554;29;20060;-66
2021/07/22 00:22:09;;;;;;;22.00;10.90;;;25.70;84.10;;;;;;4879467;29;20047;-66
2021/07/22 00:25:13;;;;;;;20.52;10.18;;;25.80;83.80;;;;;;4879020;29;20406;-66
2021/07/22 00:28:17;;;;;;;29.08;11.07;;;25.70;83.80;;;;;;4879186;29;20052;-66
2021/07/22 00:31:21;;;;;;;30.35;11.35;;;25.70;83.50;;;;;;4879070;29;20048;-67
2021/07/22 00:34:25;;;;;;;26.27;11.20;;;25.70;83.30;;;;;;4879069;29;20068;-67
2021/07/22 00:37:29;;;;;;;19.70;11.15;;;25.70;83.80;;;;;;4878117;29;20052;-67
2021/07/22 00:40:33;;;;;;;21.55;10.80;;;25.70;83.70;;;;;;4878130;29;20043;-67
2021/07/22 00:43:39;;;;;;;24.80;11.15;;;25.70;83.20;;;;;;4878091;29;20520;-67
2021/07/22 00:46:44;;;;;;;19.25;10.82;;;25.70;83.50;;;;;;4877951;29;20048;-67
2021/07/22 00:49:51;;;;;;;19.85;11.10;;;25.70;83.90;;;;;;4879135;29;20052;-67
2021/07/22 00:52:56;;;;;;;25.02;11.32;;;25.60;84.30;;;;;;4878514;29;20064;-67
2021/07/22 00:56:02;;;;;;;30.48;11.43;;;25.60;84.60;;;;;;4877544;29;20048;-67
2021/07/22 00:59:07;;;;;;;20.77;11.95;;;25.60;85.00;;;;;;4877487;29;20056;-67
2021/07/22 01:02:13;;;;;;;23.55;12.15;;;25.60;84.70;;;;;;4877625;29;20048;-67
2021/07/22 01:05:17;;;;;;;22.60;11.70;;;25.70;84.40;;;;;;4877388;29;20060;-67
2021/07/22 01:08:21;;;;;;;23.42;12.45;;;25.70;84.60;;;;;;4877416;29;20397;-67
2021/07/22 01:11:45;;;;;;;23.42;12.50;;;25.60;85.20;;;;;;4877628;29;20417;-66
2021/07/22 01:14:49;;;;;;;19.50;12.00;;;25.40;85.90;;;;;;4877589;29;20048;-67
2021/07/22 01:17:53;;;;;;;20.17;11.98;;;25.10;87.10;;;;;;4878205;29;20394;-67
2021/07/22 01:20:59;;;;;;;21.98;11.60;;;25.00;87.70;;;;;;4878217;29;20067;-67
2021/07/22 01:24:03;;;;;;;27.25;12.23;;;24.90;87.90;;;;;;4877500;29;20056;-67
2021/07/22 01:27:25;;;;;;;38.08;11.95;;;24.90;88.10;;;;;;4878126;29;20044;-67
2021/07/22 01:30:32;;;;;;;23.33;12.30;;;24.90;88.50;;;;;;4877137;29;20044;-67
2021/07/22 01:33:37;;;;;;;24.40;12.07;;;25.00;88.20;;;;;;4877247;29;20056;-67
2021/07/22 01:36:41;;;;;;;20.13;11.90;;;25.10;88.10;;;;;;4877012;29;20520;-67
2021/07/22 01:39:45;;;;;;;20.60;11.55;;;25.10;88.00;;;;;;4877901;29;20135;-67
2021/07/22 01:42:51;;;;;;;20.90;11.82;;;25.00;88.10;;;;;;4877040;29;20044;-67
2021/07/22 01:45:59;;;;;;;20.58;12.00;;;24.80;88.70;;;;;;4877065;29;20064;-67
2021/07/22 01:49:03;;;;;;;23.30;11.75;;;24.90;88.70;;;;;;4877145;29;20052;-67
2021/07/22 01:52:10;;;;;;;20.05;12.20;;;24.90;88.40;;;;;;4876763;29;20056;-67
2021/07/22 01:55:16;;;;;;;24.65;12.38;;;25.00;88.00;;;;;;4877532;29;20044;-67
2021/07/22 01:58:36;;;;;;;19.67;11.65;;;25.00;87.90;;;;;;4876564;29;20516;-66
2021/07/22 02:01:41;;;;;;;24.52;11.27;;;25.00;87.80;;;;;;4876775;29;20048;-67
2021/07/22 02:05:00;;;;;;;18.58;11.63;;;24.90;87.70;;;;;;4876525;29;20056;-67
2021/07/22 02:08:04;;;;;;;15.90;10.63;;;24.80;87.60;;;;;;4866283;29;20044;-67
2021/07/22 02:11:08;;;;;;;22.48;10.73;;;24.70;88.60;;;;;;4877365;29;20052;-66
2021/07/22 02:14:12;;;;;;;17.80;11.05;;;24.60;88.30;;;;;;4865679;29;20047;-66
2021/07/22 02:17:18;;;;;;;23.42;11.32;;;24.60;89.00;;;;;;4876361;29;20044;-67
2021/07/22 02:20:24;;;;;;;19.58;11.13;;;24.50;89.10;;;;;;4876485;29;20540;-67
2021/07/22 02:23:32;;;;;;;16.17;10.93;;;24.50;89.00;;;;;;4876482;29;20056;-67
2021/07/22 02:27:06;;;;;;;22.30;11.25;;;24.60;89.10;;;;;;4877317;29;20056;-67
2021/07/22 02:30:11;;;;;;;21.02;11.38;;;24.60;89.00;;;;;;4876430;29;20063;-67
2021/07/22 02:33:15;;;;;;;18.70;10.35;;;24.60;88.90;;;;;;4877314;29;20044;-67
2021/07/22 02:36:19;;;;;;;25.48;12.15;;;24.60;88.60;;;;;;4881076;29;20052;-67
2021/07/22 02:39:39;;;;;;;20.40;10.40;;;24.60;88.70;;;;;;4880102;29;20056;-67
2021/07/22 02:42:43;;;;;;;24.77;10.73;;;24.40;88.90;;;;;;4880148;29;20572;-66
2021/07/22 02:45:51;;;;;;;21.27;9.88;;;24.50;89.20;;;;;;4880042;29;20123;-67
2021/07/22 02:49:00;;;;;;;19.08;10.57;;;24.40;89.00;;;;;;4880813;29;20040;-66
2021/07/22 02:52:08;;;;;;;21.73;9.73;;;24.50;89.10;;;;;;4879936;29;20048;-67
2021/07/22 02:55:14;;;;;;;17.08;10.52;;;24.50;88.90;;;;;;4879850;29;20112;-67
2021/07/22 02:58:17;;;;;;;22.25;10.38;;;24.70;88.30;;;;;;4879645;29;20076;-67
2021/07/22 03:01:22;;;;;;;17.90;9.68;;;24.70;87.90;;;;;;4879663;29;20420;-67
2021/07/22 03:04:31;;;;;;;17.40;9.77;;;24.80;87.30;;;;;;4880534;29;20434;-67
2021/07/22 03:07:51;;;;;;;20.27;10.07;;;24.80;87.40;;;;;;4879632;29;20060;-67
2021/07/22 03:10:56;;;;;;;16.92;10.75;;;24.80;87.30;;;;;;4880712;29;20048;-67
2021/07/22 03:14:01;;;;;;;20.73;11.18;;;24.70;87.70;;;;;;4879629;29;20245;-67
2021/07/22 03:17:07;;;;;;;24.52;10.88;;;24.50;88.70;;;;;;4879825;29;20041;-67
2021/07/22 03:20:15;;;;;;;21.25;11.45;;;24.30;89.80;;;;;;4880320;29;20060;-67
2021/07/22 03:23:25;;;;;;;21.55;11.55;;;24.20;90.40;;;;;;4879245;29;20035;-67
2021/07/22 03:26:30;;;;;;;16.60;11.38;;;24.20;90.40;;;;;;4879409;29;20217;-66
2021/07/22 03:29:34;;;;;;;16.77;11.20;;;24.10;90.60;;;;;;4879240;29;20407;-66
2021/07/22 03:32:41;;;;;;;19.23;12.00;;;24.10;90.70;;;;;;4879834;29;20056;-67
2021/07/22 03:35:46;;;;;;;18.77;10.88;;;24.00;90.80;;;;;;4879010;29;20048;-67
2021/07/22 03:38:53;;;;;;;16.05;10.40;;;24.00;90.80;;;;;;4879070;29;20417;-66
2021/07/22 03:42:12;;;;;;;16.35;9.15;;;24.10;90.70;;;;;;4880004;29;20044;-67
2021/07/22 03:45:34;;;;;;;16.88;9.23;;;24.20;89.50;;;;;;4878857;29;20044;-67
2021/07/22 03:48:39;;;;;;;19.58;9.48;;;24.20;89.70;;;;;;4878868;29;20040;-67
2021/07/22 03:51:44;;;;;;;22.10;10.30;;;24.20;88.20;;;;;;4878838;29;20305;-67
2021/07/22 03:54:49;;;;;;;20.35;10.25;;;24.20;88.00;;;;;;4878968;29;20068;-67
2021/07/22 03:57:56;;;;;;;20.58;9.65;;;24.10;88.30;;;;;;4878681;29;20056;-67
2021/07/22 04:01:05;;;;;;;16.55;10.13;;;24.10;88.10;;;;;;4878837;29;20079;-67
2021/07/22 04:04:16;;;;;;;20.17;9.75;;;24.20;87.30;;;;;;4878874;29;20119;-67
2021/07/22 04:07:24;;;;;;;14.50;8.77;;;24.30;87.00;;;;;;4878625;29;20052;-67
2021/07/22 04:10:56;;;;;;;19.70;10.10;;;24.40;86.60;;;;;;4878444;29;20044;-67
2021/07/22 04:14:19;;;;;;;21.10;10.02;;;24.40;87.00;;;;;;4879362;29;20040;-67
2021/07/22 04:17:51;;;;;;;21.33;10.05;;;24.40;87.20;;;;;;4878395;29;20056;-68
2021/07/22 04:21:01;;;;;;;24.35;10.52;;;24.40;88.00;;;;;;4879295;29;20056;-67
2021/07/22 04:24:23;;;;;;;26.58;10.98;;;24.40;88.40;;;;;;4878339;29;20044;-67
2021/07/22 04:27:37;;;;;;;21.98;11.90;;;24.40;88.10;;;;;;4878335;29;20064;-67
2021/07/22 04:30:52;;;;;;;24.08;13.02;;;24.40;88.00;;;;;;4878093;29;20052;-67
2021/07/22 04:34:13;;;;;;;23.73;11.63;;;24.40;87.90;;;;;;4879013;29;20060;-67
2021/07/22 04:37:24;;;;;;;20.48;12.13;;;24.40;88.10;;;;;;4878932;29;20040;-67
2021/07/22 04:40:48;;;;;;;24.90;11.00;;;24.50;87.70;;;;;;4868799;29;20430;-67
2021/07/22 04:44:18;;;;;;;20.92;10.27;;;24.60;87.40;;;;;;4878207;29;20048;-68
2021/07/22 04:47:38;;;;;;;23.17;11.47;;;24.70;87.40;;;;;;4877853;29;20048;-67
2021/07/22 04:51:05;;;;;;;34.33;11.52;;;25.00;86.30;;;;;;4878532;29;20056;-68
2021/07/22 04:54:32;;;;;;;24.83;10.05;;;25.40;85.20;;;;;;4870276;29;20508;-67
2021/07/22 04:57:38;;;;;;;19.88;10.55;;;25.90;82.60;;;;;;4877360;29;20060;-67
2021/07/22 05:00:45;;;;;;;24.85;10.82;;;26.20;81.80;;;;;;4881876;29;20056;-67
2021/07/22 05:03:49;;;;;;;30.77;12.25;;;26.60;81.10;;;;;;4866837;29;20040;-67
2021/07/22 05:06:53;;;;;;;39.45;13.85;;;26.80;80.90;;;;;;4877468;29;20053;-67
2021/07/22 05:10:15;;;;;;;24.08;11.27;;;26.90;80.60;;;;;;4877195;29;20158;-67
2021/07/22 05:13:39;;;;;;;32.35;12.15;;;26.90;80.40;;;;;;4878646;29;20186;-67
2021/07/22 05:17:02;;;;;;;25.08;11.23;;;26.60;81.10;;;;;;4878148;29;20048;-67
2021/07/22 05:20:28;;;;;;;28.58;11.75;;;26.50;81.30;;;;;;4877196;29;20048;-67
2021/07/22 05:23:50;;;;;;;21.17;11.30;;;26.60;80.30;;;;;;4877236;29;20060;-67
2021/07/22 05:27:19;;;;;;;25.02;11.10;;;26.70;80.30;;;;;;4877212;29;20114;-67
2021/07/22 05:30:44;;;;;;;30.95;10.73;;;26.90;79.70;;;;;;4880886;29;20068;-67
2021/07/22 05:33:56;;;;;;;26.95;10.55;;;27.00;79.20;;;;;;4877935;29;20220;-67
2021/07/22 05:37:12;;;;;;;23.23;10.27;;;27.30;78.60;;;;;;4877541;29;20048;-67
2021/07/22 05:40:20;;;;;;;19.40;11.25;;;27.60;77.20;;;;;;4877392;29;20520;-67
2021/07/22 05:43:24;;;;;;;21.35;9.35;;;27.80;76.50;;;;;;4877422;29;20044;-67
2021/07/22 05:46:30;;;;;;;17.83;10.02;;;27.90;75.90;;;;;;4877527;29;20052;-66
2021/07/22 05:49:34;;;;;;;22.10;10.80;;;28.00;75.50;;;;;;4877098;29;20099;-67
2021/07/22 05:52:38;;;;;;;24.27;11.77;;;28.10;75.20;;;;;;4877430;29;20056;-67
2021/07/22 05:55:43;;;;;;;22.60;11.20;;;28.10;75.20;;;;;;4877421;29;20048;-68
2021/07/22 05:58:46;;;;;;;22.10;12.07;;;28.00;75.50;;;;;;4877199;29;20073;-67
2021/07/22 06:01:50;;;;;;;23.92;11.52;;;28.30;75.60;;;;;;4877816;29;20036;-67
2021/07/22 06:04:54;;;;;;;22.92;11.43;;;28.50;74.80;;;;;;4877453;29;20063;-68
2021/07/22 06:08:01;;;;;;;24.30;10.90;;;28.60;74.40;;;;;;4877195;29;20053;-68
2021/07/22 06:11:06;;;;;;;24.35;11.02;;;28.70;73.90;;;;;;4877086;29;20055;-68
2021/07/22 06:14:10;;;;;;;19.02;11.10;;;28.80;74.10;;;;;;4877500;29;20401;-68
2021/07/22 06:17:30;;;;;;;26.00;10.23;;;29.00;73.30;;;;;;4877301;29;20052;-68
2021/07/22 06:20:35;;;;;;;23.23;10.48;;;29.20;72.90;;;;;;4877327;29;20060;-67
2021/07/22 06:23:39;;;;;;;15.27;9.10;;;29.40;72.30;;;;;;4876363;29;20508;-67
2021/07/22 06:26:43;;;;;;;19.25;8.43;;;29.40;71.30;;;;;;4877023;29;20412;-67
2021/07/22 06:29:47;;;;;;;22.65;10.05;;;29.50;70.60;;;;;;4877246;29;20053;-67
2021/07/22 06:32:51;;;;;;;22.85;10.20;;;29.60;70.50;;;;;;4877164;29;20059;-67
2021/07/22 06:35:55;;;;;;;16.42;9.45;;;29.70;70.40;;;;;;4876233;29;20056;-67
2021/07/22 06:38:59;;;;;;;18.60;9.80;;;30.00;70.20;;;;;;4877489;29;20059;-67
2021/07/22 06:42:03;;;;;;;19.55;10.15;;;30.20;69.10;;;;;;4877116;29;20052;-66
2021/07/22 06:45:08;;;;;;;27.35;11.68;;;30.40;69.50;;;;;;4876985;29;20044;-66
2021/07/22 06:48:12;;;;;;;38.42;11.43;;;30.40;70.60;;;;;;4877172;29;20389;-66
2021/07/22 06:51:16;;;;;;;22.75;10.13;;;30.60;71.20;;;;;;4876956;29;20056;-66
2021/07/22 06:54:21;;;;;;;20.52;9.10;;;30.90;70.70;;;;;;4876970;29;20057;-66
2021/07/22 06:57:25;;;;;;;28.73;9.18;;;31.30;68.70;;;;;;4876770;29;20068;-66
2021/07/22 07:00:29;;;;;;;18.83;9.80;;;31.50;67.20;;;;;;4876851;29;20056;-66
2021/07/22 07:03:33;;;;;;;24.23;8.82;;;31.80;66.90;;;;;;4877255;29;20060;-66
2021/07/22 07:06:37;;;;;;;16.63;8.48;;;31.90;67.00;;;;;;4876090;29;20044;-66
2021/07/22 07:09:41;;;;;;;29.67;9.75;;;31.90;67.80;;;;;;4877062;29;20048;-67
2021/07/22 07:12:45;;;;;;;19.65;8.80;;;32.10;67.30;;;;;;4877220;29;20053;-67
2021/07/22 07:15:51;;;;;;;20.88;9.05;;;32.40;65.10;;;;;;4877041;29;20394;-67
2021/07/22 07:18:55;;;;;;;21.70;8.73;;;32.40;64.80;;;;;;4876300;29;20044;-67
2021/07/22 07:21:59;;;;;;;16.25;7.85;;;32.50;64.50;;;;;;4879094;29;20516;-67
2021/07/22 07:25:03;;;;;;;24.25;8.95;;;32.60;63.50;;;;;;4880241;29;20044;-69
2021/07/22 07:28:08;;;;;;;27.80;9.05;;;32.80;63.10;;;;;;4880099;29;20048;-66
2021/07/22 07:31:12;;;;;;;21.27;8.57;;;33.00;63.30;;;;;;4879264;29;20123;-66
2021/07/22 07:34:16;;;;;;;17.80;8.00;;;33.30;62.80;;;;;;4879407;29;20540;-65
2021/07/22 07:37:20;;;;;;;17.48;7.40;;;33.60;60.00;;;;;;4879476;29;20060;-66
2021/07/22 07:40:24;;;;;;;20.40;7.50;;;33.70;59.60;;;;;;4878595;29;20064;-67
2021/07/22 07:43:28;;;;;;;16.42;7.50;;;33.90;58.50;;;;;;4879701;29;20043;-67
2021/07/22 07:46:33;;;;;;;19.40;7.65;;;33.90;58.10;;;;;;4880052;29;20397;-67
2021/07/22 07:49:38;;;;;;;19.23;7.10;;;34.00;56.60;;;;;;4879269;29;20052;-67
2021/07/22 07:52:42;;;;;;;22.40;7.88;;;34.00;57.00;;;;;;4879641;29;20072;-67
2021/07/22 07:55:47;;;;;;;15.32;7.63;;;33.90;56.80;;;;;;4879479;29;20052;-67
2021/07/22 07:58:51;;;;;;;14.23;7.15;;;33.70;57.10;;;;;;4879321;29;20622;-67
2021/07/22 08:01:54;;;;;;;15.25;7.20;;;33.60;56.60;;;;;;4879527;29;20044;-67
2021/07/22 08:04:59;;;;;;;18.90;7.90;;;33.60;56.80;;;;;;4878288;29;20277;-67
2021/07/22 08:08:04;;;;;;;17.85;7.10;;;33.70;56.60;;;;;;4879457;29;20067;-65
2021/07/22 08:11:08;;;;;;;12.38;7.28;;;33.60;56.00;;;;;;4879594;29;20397;-65
2021/07/22 08:14:13;;;;;;;15.63;7.20;;;33.90;56.10;;;;;;4879443;29;20048;-65
2021/07/22 08:17:19;;;;;;;17.58;7.55;;;34.10;56.10;;;;;;4879213;29;20052;-66
2021/07/22 08:20:22;;;;;;;16.23;6.60;;;34.40;55.00;;;;;;4879506;29;20063;-65
2021/07/22 08:23:26;;;;;;;18.70;7.65;;;34.70;54.50;;;;;;4879355;29;20044;-65
2021/07/22 08:26:32;;;;;;;14.95;6.88;;;34.80;53.00;;;;;;4879161;29;20048;-65
2021/07/22 08:29:39;;;;;;;18.77;7.38;;;34.90;53.60;;;;;;4878013;29;20409;-66
2021/07/22 08:32:43;;;;;;;15.68;7.22;;;34.90;53.00;;;;;;4878679;29;20048;-66
2021/07/22 08:35:47;;;;;;;16.00;6.88;;;35.20;53.00;;;;;;4878932;29;20044;-66
2021/07/22 08:38:51;;;;;;;18.67;7.28;;;35.20;51.90;;;;;;4878810;29;20524;-65
2021/07/22 08:41:55;;;;;;;17.15;6.65;;;35.30;51.80;;;;;;4879092;29;20385;-66
2021/07/22 08:44:59;;;;;;;19.58;6.93;;;35.40;51.70;;;;;;4878580;29;20065;-67
2021/07/22 08:48:03;;;;;;;18.25;7.10;;;35.50;51.10;;;;;;4878791;29;20645;-66
2021/07/22 08:51:07;;;;;;;11.57;6.60;;;35.30;50.30;;;;;;4878006;29;20052;-67
2021/07/22 08:54:11;;;;;;;15.65;7.15;;;35.00;49.90;;;;;;4877900;29;20377;-66
2021/07/22 08:57:18;;;;;;;18.48;6.97;;;35.00;51.10;;;;;;4878758;29;20405;-66
2021/07/22 09:00:25;;;;;;;14.18;7.22;;;34.90;50.60;;;;;;4878572;29;20540;-67
2021/07/22 09:03:28;;;;;;;17.92;7.90;;;35.10;51.20;;;;;;4878662;29;20044;-67
2021/07/22 09:06:35;;;;;;;21.58;7.00;;;36.40;48.50;;;;;;4878385;29;20052;-66
2021/07/22 09:09:40;;;;;;;19.38;7.72;;;37.70;46.90;;;;;;4878866;29;20048;-66
2021/07/22 09:12:45;;;;;;;18.63;7.00;;;38.70;45.50;;;;;;4878335;29;20503;-66
2021/07/22 09:15:52;;;;;;;13.30;6.90;;;38.90;44.00;;;;;;4878144;29;20497;-67
2021/07/22 09:18:56;;;;;;;16.42;6.50;;;38.80;43.20;;;;;;4878424;29;20060;-67
2021/07/22 09:22:02;;;;;;;21.73;8.25;;;38.90;43.40;;;;;;4878227;29;20060;-66
2021/07/22 09:25:10;;;;;;;16.73;6.82;;;39.10;44.10;;;;;;4877996;29;20052;-67
2021/07/22 09:28:20;;;;;;;12.07;6.22;;;39.30;42.90;;;;;;4878309;29;20052;-67
2021/07/22 09:31:26;;;;;;;16.45;6.28;;;39.30;42.90;;;;;;4877903;29;20053;-67
2021/07/22 09:34:30;;;;;;;13.65;6.55;;;39.10;43.20;;;;;;4877977;29;20055;-67
2021/07/22 09:37:37;;;;;;;15.50;7.10;;;38.20;44.10;;;;;;4877807;29;20048;-68
2021/07/22 09:40:41;;;;;;;17.10;6.72;;;37.50;45.30;;;;;;4877753;29;20414;-67
2021/07/22 09:43:45;;;;;;;14.88;6.43;;;37.00;46.10;;;;;;4877001;29;20406;-67
2021/07/22 09:46:49;;;;;;;14.90;6.57;;;36.70;47.00;;;;;;4877946;29;20068;-67
2021/07/22 09:49:58;;;;;;;19.25;7.28;;;36.60;47.40;;;;;;4877955;29;20052;-66
2021/07/22 09:53:13;;;;;;;14.27;6.93;;;36.50;47.20;;;;;;4877525;29;20396;-65
2021/07/22 09:56:35;;;;;;;16.30;7.43;;;36.50;48.10;;;;;;4877434;29;20503;-65
2021/07/22 09:59:43;;;;;;;22.73;6.70;;;36.40;47.10;;;;;;4877325;29;20064;-65
2021/07/22 10:02:51;;;;;;;14.55;7.15;;;37.30;46.70;;;;;;4877530;29;20126;-65
2021/07/22 10:06:01;;;;;;;21.00;7.88;;;38.30;45.40;;;;;;4877381;29;20048;-65
2021/07/22 10:09:06;;;;;;;17.50;8.10;;;39.00;49.20;;;;;;4876812;29;20520;-66
2021/07/22 10:12:11;;;;;;;26.15;9.25;;;39.20;49.70;;;;;;4877849;29;20072;-62
2021/07/22 10:15:20;;;;;;;20.75;7.05;;;39.00;49.80;;;;;;4877473;29;20071;-62
2021/07/22 10:18:27;;;;;;;22.98;8.18;;;38.20;50.80;;;;;;4877840;29;20044;-63
2021/07/22 10:21:31;;;;;;;18.45;10.07;;;37.60;51.80;;;;;;4877412;29;20065;-62
2021/07/22 10:24:35;;;;;;;14.82;8.60;;;37.10;52.10;;;;;;4877110;29;20433;-62
2021/07/22 10:27:44;;;;;;;21.25;8.63;;;36.70;53.60;;;;;;4877260;29;20103;-62
2021/07/22 10:30:48;;;;;;;16.52;7.68;;;36.40;55.10;;;;;;4876583;29;20397;-63
2021/07/22 10:33:53;;;;;;;24.25;7.90;;;36.30;56.00;;;;;;4876972;29;20123;-62
2021/07/22 10:36:57;;;;;;;12.77;7.57;;;36.20;55.10;;;;;;4877105;29;20516;-63
2021/07/22 10:40:05;;;;;;;14.13;6.75;;;36.10;55.30;;;;;;4876785;29;20091;-62
2021/07/22 10:43:29;;;;;;;13.82;7.63;;;36.00;55.60;;;;;;4876950;29;20048;-62
2021/07/22 10:46:55;;;;;;;12.45;7.50;;;35.90;55.40;;;;;;4877273;29;20143;-62
2021/07/22 10:49:59;;;;;;;12.77;7.50;;;35.80;54.60;;;;;;4876200;29;20044;-62
2021/07/22 10:53:04;;;;;;;15.38;7.50;;;35.70;55.20;;;;;;4876745;29;20044;-62
2021/07/22 10:56:29;;;;;;;19.27;8.20;;;35.60;54.70;;;;;;4879584;29;20544;-63
2021/07/22 10:59:54;;;;;;;13.50;7.68;;;35.50;57.00;;;;;;4880435;29;20064;-62
2021/07/22 11:02:58;;;;;;;24.95;8.70;;;35.40;55.20;;;;;;4880498;29;20053;-62
2021/07/22 11:06:04;;;;;;;19.33;7.53;;;35.30;57.20;;;;;;4880453;29;20071;-62
2021/07/22 11:09:09;;;;;;;15.07;7.38;;;35.30;57.20;;;;;;4880635;29;20083;-62
2021/07/22 11:12:45;;;;;;;16.58;8.20;;;35.20;56.50;;;;;;4880312;29;20056;-62
2021/07/22 11:15:57;;;;;;;17.27;7.75;;;35.20;55.80;;;;;;4880617;29;20060;-62
2021/07/22 11:19:11;;;;;;;15.88;7.25;;;35.00;57.50;;;;;;4880236;29;20626;-62
2021/07/22 11:22:15;;;;;;;14.57;7.38;;;35.00;58.00;;;;;;4880453;29;20405;-62
2021/07/22 11:25:20;;;;;;;16.85;7.30;;;34.90;56.70;;;;;;4880372;29;20040;-62
2021/07/22 11:28:25;;;;;;;13.82;7.55;;;34.90;55.10;;;;;;4879325;29;20532;-63
2021/07/22 11:31:32;;;;;;;19.40;8.18;;;34.90;56.90;;;;;;4880227;29;20052;-62
2021/07/22 11:34:39;;;;;;;18.92;7.38;;;34.90;56.10;;;;;;4879858;29;20052;-61
2021/07/22 11:37:43;;;;;;;19.40;7.32;;;34.80;56.60;;;;;;4879879;29;20056;-61
2021/07/22 11:40:47;;;;;;;16.25;7.72;;;34.80;57.30;;;;;;4879887;29;20064;-61
2021/07/22 11:43:59;;;;;;;13.35;6.88;;;34.70;56.30;;;;;;4880093;29;20044;-62
2021/07/22 11:47:14;;;;;;;11.23;6.90;;;34.70;55.20;;;;;;4879766;29;20052;-63
2021/07/22 11:50:28;;;;;;;11.43;6.72;;;34.70;57.60;;;;;;4880115;29;20048;-62
2021/07/22 11:53:32;;;;;;;11.85;6.68;;;34.70;58.80;;;;;;4879754;29;20068;-62
2021/07/22 11:56:37;;;;;;;17.08;7.07;;;34.70;59.80;;;;;;4878830;29;20056;-63
2021/07/22 11:59:41;;;;;;;20.17;7.57;;;34.70;61.90;;;;;;4879214;29;20573;-63
2021/07/22 12:02:51;;;;;;;16.95;7.75;;;34.60;62.30;;;;;;4879627;29;20052;-61
2021/07/22 12:05:55;;;;;;;17.23;8.15;;;34.60;62.40;;;;;;4879368;29;20500;-62
2021/07/22 12:09:08;;;;;;;13.07;7.97;;;34.50;64.60;;;;;;4879569;29;20044;-61
2021/07/22 12:12:12;;;;;;;17.27;8.88;;;34.40;64.20;;;;;;4879658;29;20048;-61
2021/07/22 12:15:17;;;;;;;16.15;8.40;;;35.10;63.70;;;;;;4879187;29;20052;-60
2021/07/22 12:18:23;;;;;;;19.30;7.65;;;35.50;61.80;;;;;;4879398;29;20049;-60
2021/07/22 12:21:29;;;;;;;17.48;7.75;;;36.40;61.90;;;;;;4879202;29;20544;-60
2021/07/22 12:24:37;;;;;;;16.00;6.68;;;36.30;60.40;;;;;;4878558;29;20512;-61
2021/07/22 12:27:54;;;;;;;17.83;7.95;;;35.80;61.30;;;;;;4879094;29;20076;-61
2021/07/22 12:31:22;;;;;;;20.08;8.57;;;35.40;61.80;;;;;;4878411;29;20053;-61
2021/07/22 12:34:36;;;;;;;15.82;7.35;;;35.00;63.80;;;;;;4879027;29;20417;-61
2021/07/22 12:37:54;;;;;;;19.48;7.80;;;34.60;64.30;;;;;;4878948;29;20052;-61
2021/07/22 12:41:05;;;;;;;15.13;7.22;;;34.40;65.10;;;;;;4878813;29;20068;-61
2021/07/22 12:44:10;;;;;;;13.43;7.43;;;34.20;65.20;;;;;;4879066;29;20052;-61
2021/07/22 12:47:30;;;;;;;22.50;8.40;;;34.10;65.70;;;;;;4879116;29;20459;-61
2021/07/22 12:50:39;;;;;;;18.25;7.45;;;34.00;66.00;;;;;;4878737;29;20067;-62
2021/07/22 12:53:45;;;;;;;16.00;7.57;;;33.90;65.40;;;;;;4878576;29;20221;-61
2021/07/22 12:56:51;;;;;;;17.65;8.50;;;33.80;66.00;;;;;;4878910;29;20052;-61
2021/07/22 13:00:25;;;;;;;13.48;7.28;;;33.70;65.80;;;;;;4878479;29;20618;-61
2021/07/22 13:03:33;;;;;;;13.20;7.22;;;33.70;65.40;;;;;;4878724;29;20048;-60
2021/07/22 13:06:40;;;;;;;10.48;7.10;;;33.50;64.90;;;;;;4878823;29;20048;-60
2021/07/22 13:09:44;;;;;;;11.30;6.32;;;33.40;65.50;;;;;;4878363;29;20449;-61
2021/07/22 13:12:49;;;;;;;15.80;7.65;;;33.40;65.40;;;;;;4878444;29;20056;-61
2021/07/22 13:15:54;;;;;;;13.73;7.70;;;33.20;66.10;;;;;;4878341;29;20405;-62
2021/07/22 13:18:58;;;;;;;13.52;6.97;;;33.20;67.60;;;;;;4877901;29;20068;-62
2021/07/22 13:22:04;;;;;;;17.55;7.57;;;33.10;67.20;;;;;;4878269;29;20057;-62
2021/07/22 13:25:08;;;;;;;14.98;6.70;;;33.00;67.90;;;;;;4878098;29;20131;-61
2021/07/22 13:28:13;;;;;;;16.30;6.80;;;33.00;67.40;;;;;;4878006;29;20056;-61
2021/07/22 13:31:17;;;;;;;12.10;6.30;;;32.90;66.70;;;;;;4877995;29;20044;-62
2021/07/22 13:34:21;;;;;;;21.27;7.10;;;32.80;64.20;;;;;;4877009;29;20198;-62
2021/07/22 13:37:28;;;;;;;15.90;7.03;;;32.80;65.30;;;;;;4877893;29;20051;-61
2021/07/22 13:40:34;;;;;;;11.20;7.00;;;33.70;63.70;;;;;;4877720;29;20076;-61
2021/07/22 13:43:39;;;;;;;16.27;6.88;;;34.50;63.00;;;;;;4877915;29;20504;-60
2021/07/22 13:46:43;;;;;;;13.75;6.97;;;35.30;61.70;;;;;;4877858;29;20052;-61
2021/07/22 13:49:47;;;;;;;13.55;6.30;;;35.40;61.50;;;;;;4877939;29;20059;-60
2021/07/22 13:52:50;;;;;;;14.68;7.20;;;35.90;60.10;;;;;;4877942;29;20048;-60
2021/07/22 13:55:54;;;;;;;16.17;6.75;;;36.10;60.20;;;;;;4877728;29;20052;-60
2021/07/22 13:58:59;;;;;;;11.20;6.20;;;36.30;59.80;;;;;;4877279;29;20429;-60
2021/07/22 14:02:03;;;;;;;21.20;6.65;;;36.40;56.50;;;;;;4877338;29;20076;-61
2021/07/22 14:05:08;;;;;;;20.23;7.00;;;36.10;55.40;;;;;;4877244;29;20048;-61
2021/07/22 14:08:12;;;;;;;17.10;6.20;;;36.00;55.70;;;;;;4877305;29;20361;-61
2021/07/22 14:11:16;;;;;;;19.17;5.57;;;35.90;55.20;;;;;;4877504;29;20072;-60
2021/07/22 14:14:20;;;;;;;13.27;5.28;;;36.00;52.90;;;;;;4877521;29;20048;-61
2021/07/22 14:17:24;;;;;;;13.75;6.38;;;36.40;52.00;;;;;;4877524;29;20044;-62
2021/07/22 14:20:28;;;;;;;14.07;5.90;;;37.00;51.10;;;;;;4877174;29;20056;-62
2021/07/22 14:23:32;;;;;;;13.93;6.10;;;36.70;52.10;;;;;;4877307;29;20052;-62
2021/07/22 14:26:36;;;;;;;17.55;6.50;;;36.40;52.00;;;;;;4877409;29;20052;-62
2021/07/22 14:29:40;;;;;;;21.55;6.50;;;36.40;52.90;;;;;;4876935;29;20509;-62
2021/07/22 14:32:44;;;;;;;12.70;5.65;;;36.70;51.80;;;;;;4877220;29;20046;-61
2021/07/22 14:35:48;;;;;;;16.25;6.07;;;36.80;52.40;;;;;;4877394;29;20401;-62
2021/07/22 14:38:52;;;;;;;20.95;6.18;;;36.80;52.60;;;;;;4876941;29;20409;-62
2021/07/22 14:41:57;;;;;;;15.10;6.00;;;36.40;53.30;;;;;;4877006;29;20056;-62
2021/07/22 14:45:01;;;;;;;19.65;6.28;;;36.40;53.50;;;;;;4877192;29;20052;-61
2021/07/22 14:48:05;;;;;;;21.98;6.03;;;36.30;55.00;;;;;;4877126;29;20047;-61
2021/07/22 14:51:12;;;;;;;22.88;6.50;;;36.90;53.20;;;;;;4876067;29;20068;-64
2021/07/22 14:54:16;;;;;;;19.38;6.18;;;37.10;54.00;;;;;;4876230;29;20044;-61
2021/07/22 14:57:22;;;;;;;17.05;6.13;;;36.70;52.00;;;;;;4876934;29;20069;-63
2021/07/22 15:00:26;;;;;;;15.18;5.90;;;36.60;52.60;;;;;;4876696;29;20080;-63
2021/07/22 15:03:33;;;;;;;10.98;5.70;;;36.40;51.00;;;;;;4876237;29;20048;-63
2021/07/22 15:06:43;;;;;;;10.73;5.68;;;36.50;52.20;;;;;;4876997;29;20052;-63
2021/07/22 15:09:47;;;;;;;15.43;5.40;;;36.90;51.40;;;;;;4876866;29;20061;-62
2021/07/22 15:12:51;;;;;;;12.18;5.45;;;37.30;51.40;;;;;;4876140;29;20044;-62
2021/07/22 15:15:56;;;;;;;15.85;6.10;;;37.10;52.10;;;;;;4877052;29;20076;-62
2021/07/22 15:19:00;;;;;;;16.30;6.40;;;37.20;52.60;;;;;;4876110;29;20052;-63
2021/07/22 15:22:03;;;;;;;13.43;6.07;;;37.00;52.90;;;;;;4876554;29;20060;-64
2021/07/22 15:25:07;;;;;;;9.38;5.80;;;36.10;47.60;;;;;;4876106;29;20071;-63
2021/07/22 15:28:12;;;;;;;11.88;5.95;;;35.30;50.10;;;;;;4876591;29;20054;-63
2021/07/22 15:31:15;;;;;;;11.18;6.10;;;34.60;54.20;;;;;;4876457;29;20047;-64
2021/07/22 15:34:19;;;;;;;13.93;5.90;;;34.00;57.70;;;;;;4876334;29;20052;-64
2021/07/22 15:37:23;;;;;;;18.77;6.57;;;33.60;58.90;;;;;;4876442;29;20413;-63
2021/07/22 15:40:27;;;;;;;19.30;6.72;;;33.20;61.10;;;;;;4876271;29;20136;-63
2021/07/22 15:43:31;;;;;;;17.65;7.07;;;33.00;62.00;;;;;;4879565;29;20080;-63
2021/07/22 15:46:36;;;;;;;12.93;6.63;;;32.80;63.00;;;;;;4879396;29;20060;-63
2021/07/22 15:49:41;;;;;;;14.38;7.38;;;32.60;64.20;;;;;;4878899;29;20524;-63
2021/07/22 15:52:45;;;;;;;20.13;7.13;;;32.50;64.50;;;;;;4879311;29;20400;-63
2021/07/22 15:55:49;;;;;;;14.63;5.85;;;32.40;65.10;;;;;;4879543;29;20397;-61
2021/07/22 15:58:54;;;;;;;16.60;8.75;;;32.30;65.40;;;;;;4878195;29;20056;-61